Terminal Aerodrome Forecast
Issued by NWS

Home | Current Version | Previous Version | Text Only | Print | Product List | Glossary On
Versions: 1 2 3 4 5 6 7 8 9 10 11 12 13 14 15 16 17 18 19 20 21 22 23 24 25 26 27 28 29 30 31 32 33 34 35 36 37 38 39 40 41 42
000
FTUS43 KDTX 250043 AAA
TAFPTK
TAF AMD
KPTK 250043Z 2501/2524 16006KT P6SM SCT050 BKN100
     FM250200 20010KT 5SM -SHRA SCT015 OVC035
      TEMPO 2502/2504 2SM TSRA OVC015CB
     FM250600 25012G18KT P6SM SCT025 BKN080
     FM250900 24014G22KT P6SM -SHSN SCT012 BKN022
     FM251400 23014G28KT P6SM -SHSN OVC020
     FM252100 26015G28KT P6SM -SHSN OVC025=

USA.gov is the U.S. government's official web portal to all federal, state and local government web resources and services.